createdAt,value
2023-03-21T00:03:12.549Z,7.66
2023-03-21T00:08:17.363Z,7.67
2023-03-21T00:13:19.285Z,7.67
2023-03-21T00:18:23.014Z,7.68
2023-03-21T00:23:31.624Z,7.68
2023-03-21T00:28:36.441Z,7.69
2023-03-21T00:33:40.483Z,7.70
2023-03-21T00:38:46.811Z,7.70
2023-03-21T00:43:48.571Z,7.71
2023-03-21T00:48:53.276Z,7.72
2023-03-21T00:53:58.359Z,7.71
2023-03-21T00:59:02.705Z,7.73
2023-03-21T01:04:05.770Z,7.73
2023-03-21T01:09:13.866Z,7.74
2023-03-21T01:14:22.948Z,7.75
2023-03-21T01:19:48.281Z,7.75
2023-03-21T01:25:00.573Z,7.75
2023-03-21T01:30:19.127Z,7.76
2023-03-21T01:35:22.799Z,7.77
2023-03-21T01:40:26.269Z,7.79
2023-03-21T01:46:10.406Z,7.80
2023-03-21T01:51:33.528Z,7.79
2023-03-21T01:56:40.664Z,7.82
2023-03-21T02:01:52.052Z,7.81
2023-03-21T02:06:59.683Z,7.84
2023-03-21T02:12:16.367Z,7.86
2023-03-21T02:17:36.143Z,7.87
2023-03-21T02:23:18.583Z,7.87
2023-03-21T02:28:20.405Z,7.88
2023-03-21T02:33:47.963Z,7.89
2023-03-21T02:38:56.160Z,7.90
2023-03-21T02:44:45.211Z,7.93
2023-03-21T02:50:13.004Z,7.93
2023-03-21T02:55:19.988Z,7.95
2023-03-21T03:00:30.012Z,7.95
2023-03-21T03:05:37.835Z,7.96
2023-03-21T03:10:57.716Z,7.97
2023-03-21T03:16:07.772Z,7.98
2023-03-21T03:21:19.147Z,7.99
2023-03-21T03:26:26.447Z,7.99
2023-03-21T03:31:38.562Z,8.01
2023-03-21T03:36:47.795Z,8.03
2023-03-21T03:42:12.482Z,8.02
2023-03-21T03:47:47.685Z,8.02
2023-03-21T03:53:18.102Z,8.02
2023-03-21T03:58:36.203Z,8.04
2023-03-21T04:03:52.980Z,8.04
2023-03-21T04:09:18.745Z,8.06
2023-03-21T04:14:23.755Z,8.09
2023-03-21T04:19:30.053Z,8.10
2023-03-21T04:24:34.416Z,8.10
2023-03-21T04:29:38.518Z,8.13
2023-03-21T04:34:50.262Z,8.15
2023-03-21T04:39:55.714Z,8.16
2023-03-21T04:44:57.754Z,8.17
2023-03-21T04:49:59.485Z,8.19
2023-03-21T04:55:03.970Z,8.21
2023-03-21T05:00:10.990Z,8.21
2023-03-21T05:05:16.001Z,8.22
2023-03-21T05:10:22.249Z,8.23
2023-03-21T05:15:24.483Z,8.25
2023-03-21T05:20:28.491Z,8.25
2023-03-21T05:25:38.772Z,8.28
2023-03-21T05:30:55.702Z,8.29
2023-03-21T05:35:57.942Z,8.30
2023-03-21T05:41:04.231Z,8.33
2023-03-21T05:46:07.383Z,8.33
2023-03-21T05:51:09.334Z,8.36
2023-03-21T05:56:13.653Z,8.38
2023-03-21T06:01:26.169Z,8.40
2023-03-21T06:06:41.425Z,8.65
2023-03-21T06:11:49.587Z,8.62
2023-03-21T06:17:07.040Z,8.58
2023-03-21T06:22:14.276Z,8.56
2023-03-21T06:27:18.898Z,8.57
2023-03-21T06:32:29.463Z,8.59
2023-03-21T06:37:36.862Z,8.62
2023-03-21T06:42:38.666Z,8.64
2023-03-21T06:47:49.034Z,8.66
2023-03-21T06:53:05.574Z,8.68
2023-03-21T06:58:20.537Z,8.82
2023-03-21T07:03:25.703Z,8.88
2023-03-21T07:08:27.399Z,9.03
2023-03-21T07:13:32.356Z,9.12
2023-03-21T07:18:41.118Z,9.45
2023-03-21T07:23:42.782Z,9.52
2023-03-21T07:28:51.274Z,9.49
2023-03-21T07:33:55.880Z,9.48
2023-03-21T07:39:01.141Z,9.41
2023-03-21T07:49:14.073Z,9.22
2023-03-21T07:54:20.959Z,9.21
2023-03-21T07:59:23.055Z,9.20
2023-03-21T08:04:26.060Z,9.14
2023-03-21T08:09:29.135Z,9.02
2023-03-21T08:14:33.202Z,8.92
2023-03-21T08:19:39.841Z,8.91
2023-03-21T08:24:41.609Z,8.92
2023-03-21T08:29:45.731Z,9.00
2023-03-21T08:34:49.944Z,8.98
2023-03-21T08:39:54.265Z,9.06
2023-03-21T08:44:57.300Z,9.09
2023-03-21T08:50:03.148Z,9.09
2023-03-21T08:55:10.939Z,9.12
2023-03-21T09:00:18.601Z,9.20
2023-03-21T09:05:21.026Z,9.30
2023-03-21T09:10:24.876Z,9.38
2023-03-21T09:15:30.119Z,9.44
2023-03-21T09:20:32.964Z,9.60
2023-03-21T09:25:34.975Z,9.61
2023-03-21T09:30:42.200Z,9.68
2023-03-21T09:35:46.193Z,9.69
2023-03-21T09:41:12.340Z,9.63
2023-03-21T09:46:23.653Z,9.62
2023-03-21T09:51:31.680Z,9.71
2023-03-21T09:56:40.664Z,9.74
2023-03-21T10:01:50.894Z,9.73
2023-03-21T10:06:58.375Z,9.79
2023-03-21T10:12:05.075Z,9.78
2023-03-21T10:17:28.095Z,9.87
2023-03-21T10:22:30.635Z,9.82
2023-03-21T10:27:36.969Z,9.82
2023-03-21T10:32:41.605Z,9.87
2023-03-21T10:37:44.453Z,9.98
2023-03-21T10:42:50.945Z,9.98
2023-03-21T10:47:58.279Z,9.96
2023-03-21T10:53:03.662Z,10.08
2023-03-21T10:58:13.417Z,9.99
2023-03-21T11:03:22.884Z,9.92
2023-03-21T11:08:27.417Z,9.89
2023-03-21T11:13:40.582Z,9.88
2023-03-21T11:18:49.411Z,9.97
2023-03-21T11:23:53.780Z,10.02
2023-03-21T11:28:58.648Z,10.03
2023-03-21T11:34:06.508Z,10.06
2023-03-21T11:39:32.076Z,10.11
2023-03-21T11:44:41.640Z,10.03
2023-03-21T11:49:43.439Z,10.02
2023-03-21T11:54:50.392Z,10.20
2023-03-21T12:00:02.875Z,10.44
2023-03-21T12:05:22.941Z,10.18
2023-03-21T12:10:55.661Z,9.82
2023-03-21T12:16:17.205Z,9.81
2023-03-21T12:21:32.428Z,9.86
2023-03-21T12:26:44.240Z,9.88
2023-03-21T12:31:48.981Z,9.76
2023-03-21T12:37:03.425Z,9.63
2023-03-21T12:42:34.610Z,9.28
2023-03-21T12:47:36.768Z,9.19
2023-03-21T12:52:55.763Z,9.28
2023-03-21T12:58:18.876Z,9.36
2023-03-21T13:03:37.455Z,9.51
2023-03-21T13:08:54.644Z,9.64
2023-03-21T13:14:00.461Z,9.78
2023-03-21T13:19:16.312Z,9.93
2023-03-21T13:24:32.120Z,10.29
2023-03-21T13:29:47.545Z,10.54
2023-03-21T13:34:58.135Z,10.42
2023-03-21T13:40:09.307Z,10.47
2023-03-21T13:45:25.972Z,10.49
2023-03-21T13:50:31.059Z,10.66
2023-03-21T13:55:44.691Z,10.86
2023-03-21T14:01:11.182Z,10.92
2023-03-21T14:06:13.984Z,11.02
2023-03-21T14:11:21.518Z,11.12
2023-03-21T14:16:27.193Z,11.15
2023-03-21T14:21:34.712Z,11.14
2023-03-21T14:26:42.044Z,11.06
2023-03-21T14:31:46.227Z,10.91
2023-03-21T14:36:56.892Z,10.70
2023-03-21T14:42:07.298Z,10.54
2023-03-21T14:47:18.168Z,10.59
2023-03-21T14:52:25.246Z,10.57
2023-03-21T14:57:35.210Z,10.53
2023-03-21T15:02:40.341Z,10.57
2023-03-21T15:07:45.057Z,10.57
2023-03-21T15:13:13.748Z,10.64
2023-03-21T15:18:23.085Z,11.03
2023-03-21T15:23:30.322Z,11.13
2023-03-21T15:28:34.516Z,11.10
2023-03-21T15:33:41.226Z,11.01
2023-03-21T15:38:52.024Z,10.90
2023-03-21T15:43:54.036Z,10.78
2023-03-21T15:49:18.359Z,10.70
2023-03-21T15:54:30.914Z,10.71
2023-03-21T15:59:41.139Z,10.71
2023-03-21T16:05:21.618Z,10.83
2023-03-21T16:10:34.117Z,11.09
2023-03-21T16:15:39.237Z,11.21
2023-03-21T16:20:46.186Z,11.37
2023-03-21T16:25:56.086Z,11.57
2023-03-21T16:31:00.278Z,11.45
2023-03-21T16:36:02.806Z,11.15
2023-03-21T16:41:12.123Z,11.00
2023-03-21T16:46:19.524Z,10.92
2023-03-21T16:51:26.624Z,10.85
2023-03-21T16:56:28.443Z,10.77
2023-03-21T17:01:33.106Z,10.75
2023-03-21T17:06:51.330Z,10.79
2023-03-21T17:11:53.115Z,10.72
2023-03-21T17:16:55.371Z,10.65
2023-03-21T17:21:58.116Z,10.69
2023-03-21T17:27:03.365Z,10.95
2023-03-21T17:32:14.404Z,10.98
2023-03-21T17:37:20.353Z,10.77
2023-03-21T17:42:25.400Z,10.66
2023-03-21T17:47:31.275Z,10.59
2023-03-21T17:52:33.653Z,10.54
2023-03-21T17:57:38.981Z,10.50
2023-03-21T18:02:43.619Z,10.46
2023-03-21T18:08:08.861Z,10.43
2023-03-21T18:13:08.033Z,10.42
2023-03-21T18:18:14.123Z,10.43
2023-03-21T18:23:19.201Z,10.42
2023-03-21T18:28:23.942Z,10.42
2023-03-21T18:33:27.513Z,10.45
2023-03-21T18:38:29.702Z,10.45
2023-03-21T18:49:33.511Z,10.41
2023-03-21T18:54:25.823Z,10.37
2023-03-21T18:59:35.992Z,10.37
2023-03-21T19:04:43.435Z,10.34
2023-03-21T19:10:09.470Z,10.22
2023-03-21T19:15:08.509Z,10.08
2023-03-21T19:20:14.141Z,10.01
2023-03-21T19:25:19.221Z,9.97
2023-03-21T19:30:21.549Z,9.97
2023-03-21T19:35:28.864Z,9.98
2023-03-21T19:40:33.008Z,9.98
2023-03-21T19:45:39.995Z,10.00
2023-03-21T19:51:20.254Z,10.02
2023-03-21T19:56:23.065Z,10.02
2023-03-21T20:01:56.371Z,9.99
2023-03-21T20:07:33.133Z,9.89
2023-03-21T20:24:25.700Z,9.75
2023-03-21T20:30:08.714Z,9.74
2023-03-21T20:36:13.877Z,9.73
2023-03-21T20:46:40.604Z,9.78
2023-03-21T20:52:49.839Z,9.71
2023-03-21T20:57:09.530Z,9.76
2023-03-21T21:02:39.959Z,9.77
2023-03-21T21:07:53.066Z,9.67
2023-03-21T21:12:58.158Z,9.62
2023-03-21T21:18:07.115Z,9.60
2023-03-21T21:23:10.576Z,9.49
2023-03-21T21:28:15.786Z,9.43
2023-03-21T21:33:18.012Z,9.41
2023-03-21T21:38:29.506Z,9.37
2023-03-21T21:43:32.139Z,9.32
2023-03-21T21:48:41.392Z,9.13
2023-03-21T21:53:50.185Z,9.06
2023-03-21T21:58:59.503Z,9.06
2023-03-21T22:04:08.231Z,9.04
2023-03-21T22:09:15.858Z,9.04
2023-03-21T22:14:22.418Z,8.98
2023-03-21T22:19:27.649Z,9.06
2023-03-21T22:24:33.951Z,8.96
2023-03-21T22:29:40.775Z,8.73
2023-03-21T22:34:42.425Z,8.65
2023-03-21T22:39:48.719Z,8.78
2023-03-21T22:44:50.694Z,8.88
2023-03-21T22:49:54.825Z,8.91
2023-03-21T22:54:56.772Z,8.76
2023-03-21T22:59:58.621Z,8.56
2023-03-21T23:05:05.594Z,8.35
2023-03-21T23:10:08.342Z,8.28
2023-03-21T23:15:15.249Z,8.19
2023-03-21T23:20:22.079Z,8.09
2023-03-21T23:25:25.947Z,8.01
2023-03-21T23:30:27.620Z,8.05
2023-03-21T23:35:35.403Z,8.08
2023-03-21T23:40:41.947Z,8.00
2023-03-21T23:45:46.009Z,8.01
2023-03-21T23:50:50.730Z,7.96
2023-03-21T23:55:58.396Z,7.98
